Time;durP1;ratioP1;P1;durP2;ratioP2;P2;SDS_P1;SDS_P2;PMS_P1;PMS_P2;Temp;Humidity;BMP_temperature;BMP_pressure;BME280_temperature;BME280_humidity;BME280_pressure;Samples;Min_cycle;Max_cycle;Signal;HPM_P1;HPM_P2
2021/03/14 00:02:08;;;;;;;1.17;1.07;;;5.80;99.90;;;;;;5088578;28;20543;-79
2021/03/14 00:04:34;;;;;;;0.87;0.80;;;5.80;99.90;;;;;;5088529;28;20243;-77
2021/03/14 00:07:01;;;;;;;1.30;1.17;;;5.80;99.90;;;;;;5088469;28;20255;-79
2021/03/14 00:09:28;;;;;;;2.00;1.00;;;5.80;99.90;;;;;;5087879;28;20664;-79
2021/03/14 00:11:54;;;;;;;1.20;1.10;;;5.80;99.90;;;;;;5088326;28;20242;-78
2021/03/14 00:14:20;;;;;;;0.90;0.90;;;5.70;99.90;;;;;;5088227;28;20627;-78
2021/03/14 00:16:46;;;;;;;2.30;1.00;;;5.80;99.90;;;;;;5092062;28;20278;-78
2021/03/14 00:19:12;;;;;;;2.87;1.10;;;5.70;99.90;;;;;;5092528;28;20209;-77
2021/03/14 00:21:38;;;;;;;1.40;1.30;;;5.80;99.90;;;;;;5092301;28;20978;-78
2021/03/14 00:24:05;;;;;;;0.90;0.90;;;5.80;99.90;;;;;;5095658;28;20551;-78
2021/03/14 00:26:32;;;;;;;1.57;1.30;;;5.80;99.90;;;;;;5112388;28;20687;-78
2021/03/14 00:28:58;;;;;;;2.00;0.83;;;5.80;99.90;;;;;;5112830;28;20202;-79
2021/03/14 00:31:24;;;;;;;2.00;1.00;;;5.90;99.90;;;;;;5112719;28;20226;-78
2021/03/14 00:33:50;;;;;;;1.20;0.80;;;5.80;99.90;;;;;;5112611;28;20198;-79
2021/03/14 00:36:16;;;;;;;2.17;1.20;;;5.80;99.90;;;;;;5112617;28;20278;-78
2021/03/14 00:38:43;;;;;;;2.10;1.13;;;5.80;99.90;;;;;;5112348;28;20667;-78
2021/03/14 00:41:10;;;;;;;0.80;0.80;;;5.80;99.90;;;;;;5101538;28;20240;-77
2021/03/14 00:43:37;;;;;;;1.70;0.83;;;5.80;99.90;;;;;;5109574;28;20545;-78
2021/03/14 00:46:03;;;;;;;0.67;0.67;;;5.80;99.90;;;;;;5112643;28;20202;-78
2021/03/14 00:48:29;;;;;;;1.37;0.90;;;5.80;99.90;;;;;;5094069;28;20218;-78
2021/03/14 00:50:56;;;;;;;0.77;0.77;;;5.80;99.90;;;;;;5092106;28;20214;-78
2021/03/14 00:53:22;;;;;;;1.63;0.90;;;5.80;99.90;;;;;;5092144;28;20198;-78
2021/03/14 00:55:48;;;;;;;1.33;0.80;;;5.80;99.90;;;;;;5091725;28;20238;-79
2021/03/14 00:58:14;;;;;;;1.30;1.20;;;5.80;99.90;;;;;;5091884;28;20238;-78
2021/03/14 01:00:41;;;;;;;3.10;0.80;;;5.80;99.90;;;;;;5091608;28;20201;-79
2021/03/14 01:03:07;;;;;;;3.40;1.10;;;5.80;99.90;;;;;;5091816;28;20762;-79
2021/03/14 01:05:34;;;;;;;1.90;0.90;;;5.80;99.90;;;;;;5091917;28;20243;-78
2021/03/14 01:08:00;;;;;;;1.63;1.00;;;5.80;99.90;;;;;;5091683;28;20404;-79
2021/03/14 01:10:26;;;;;;;2.10;1.10;;;5.90;99.90;;;;;;5091780;28;20213;-78
2021/03/14 01:12:52;;;;;;;1.73;1.00;;;5.90;99.90;;;;;;5091422;28;20668;-78
2021/03/14 01:15:19;;;;;;;1.40;1.27;;;5.90;99.90;;;;;;5092636;28;20256;-78
2021/03/14 01:17:46;;;;;;;1.33;0.90;;;5.90;99.90;;;;;;5112028;28;20221;-79
2021/03/14 01:20:15;;;;;;;2.33;1.30;;;5.90;99.90;;;;;;5111962;28;20252;-79
2021/03/14 01:22:41;;;;;;;1.90;1.30;;;5.90;99.90;;;;;;5111940;28;20210;-80
2021/03/14 01:25:09;;;;;;;1.40;1.10;;;5.90;99.90;;;;;;5111874;28;20237;-81
2021/03/14 01:27:35;;;;;;;2.07;1.20;;;5.90;99.90;;;;;;5111410;28;20228;-81
2021/03/14 01:30:03;;;;;;;2.00;1.70;;;5.90;99.90;;;;;;5111524;28;20676;-80
2021/03/14 01:32:29;;;;;;;1.33;1.23;;;5.90;99.90;;;;;;5111881;28;20234;-81
2021/03/14 01:34:56;;;;;;;3.03;1.20;;;5.90;99.90;;;;;;5111698;28;20575;-80
2021/03/14 01:37:23;;;;;;;3.33;1.37;;;5.90;99.90;;;;;;5111424;28;20688;-80
2021/03/14 01:39:50;;;;;;;1.63;1.10;;;5.90;99.90;;;;;;5111657;28;20210;-80
2021/03/14 01:42:25;;;;;;;3.00;1.10;;;5.90;99.90;;;;;;5111713;28;20210;-79
2021/03/14 01:44:51;;;;;;;2.00;1.40;;;5.90;99.90;;;;;;5111468;28;20197;-80
2021/03/14 01:47:17;;;;;;;2.03;1.50;;;6.00;99.90;;;;;;5111529;28;20202;-79
2021/03/14 01:49:44;;;;;;;1.40;1.37;;;6.00;99.90;;;;;;5111437;28;20202;-77
2021/03/14 01:52:11;;;;;;;2.97;1.50;;;6.00;99.90;;;;;;5111200;28;20271;-77
2021/03/14 01:54:37;;;;;;;1.93;1.57;;;6.00;99.90;;;;;;5111196;27;20230;-77
2021/03/14 01:57:03;;;;;;;1.83;1.50;;;6.00;99.90;;;;;;5110967;28;20258;-77
2021/03/14 01:59:30;;;;;;;1.43;1.30;;;6.10;99.90;;;;;;5111075;28;20206;-77
2021/03/14 02:01:56;;;;;;;1.43;1.33;;;6.10;99.90;;;;;;5110642;27;20209;-78
2021/03/14 02:04:22;;;;;;;1.90;1.50;;;6.10;99.90;;;;;;5111148;28;20194;-78
2021/03/14 02:06:48;;;;;;;1.87;1.40;;;6.10;99.90;;;;;;5110980;28;20213;-77
2021/03/14 02:09:15;;;;;;;1.87;1.77;;;6.10;99.90;;;;;;5110982;28;20213;-77
2021/03/14 02:11:45;;;;;;;1.60;1.50;;;6.10;99.90;;;;;;5110549;28;21072;-79
2021/03/14 02:14:13;;;;;;;1.20;1.10;;;6.10;99.90;;;;;;5104509;28;20207;-78
2021/03/14 02:16:43;;;;;;;1.77;1.40;;;6.10;99.90;;;;;;5090665;28;20234;-78
2021/03/14 02:19:16;;;;;;;2.27;1.77;;;6.10;99.90;;;;;;5090986;28;20211;-80
2021/03/14 02:21:42;;;;;;;2.10;1.50;;;6.10;99.90;;;;;;5090561;28;20191;-79
2021/03/14 02:24:15;;;;;;;6.53;1.70;;;6.10;99.90;;;;;;5090421;28;20207;-80
2021/03/14 02:26:51;;;;;;;2.17;1.40;;;6.10;99.90;;;;;;5091028;28;20205;-82
2021/03/14 02:29:20;;;;;;;4.43;1.80;;;6.20;99.90;;;;;;5090835;28;20562;-81
2021/03/14 02:31:51;;;;;;;2.77;1.70;;;6.20;99.90;;;;;;5090813;28;20234;-84
2021/03/14 02:34:20;;;;;;;3.60;1.83;;;6.10;99.90;;;;;;5090501;28;20641;-82
2021/03/14 02:36:47;;;;;;;2.50;1.87;;;6.00;99.90;;;;;;5090962;28;20276;-84
2021/03/14 02:39:19;;;;;;;2.57;2.20;;;5.90;99.90;;;;;;5090284;28;20206;-84
2021/03/14 02:41:48;;;;;;;3.47;2.27;;;5.70;99.90;;;;;;5091156;28;20211;-83
2021/03/14 02:44:15;;;;;;;2.10;1.97;;;5.70;99.90;;;;;;5091049;28;20620;-83
2021/03/14 02:46:42;;;;;;;2.60;2.10;;;5.60;99.90;;;;;;5091092;28;20295;-84
2021/03/14 02:49:09;;;;;;;3.53;1.90;;;5.60;99.90;;;;;;5090857;28;20205;-83
2021/03/14 02:51:38;;;;;;;2.73;2.10;;;5.60;99.90;;;;;;5090921;28;20210;-83
2021/03/14 02:54:05;;;;;;;4.20;2.10;;;5.60;99.90;;;;;;5091187;28;20206;-83
2021/03/14 02:56:31;;;;;;;2.73;2.30;;;5.50;99.90;;;;;;5090946;28;20575;-84
2021/03/14 02:58:59;;;;;;;2.97;2.47;;;5.50;99.90;;;;;;5090781;28;20207;-83
2021/03/14 03:01:25;;;;;;;3.37;2.47;;;5.40;99.90;;;;;;5090412;28;20652;-80
2021/03/14 03:03:52;;;;;;;6.27;2.50;;;5.40;99.90;;;;;;5089472;28;20238;-86
2021/03/14 03:06:18;;;;;;;2.47;2.27;;;5.30;99.90;;;;;;5091352;28;20202;-85
2021/03/14 03:08:45;;;;;;;2.60;2.40;;;5.30;99.90;;;;;;5090767;28;20746;-84
2021/03/14 03:11:14;;;;;;;2.40;2.03;;;5.20;99.90;;;;;;5090050;28;20211;-80
2021/03/14 03:13:41;;;;;;;3.37;2.03;;;5.20;99.90;;;;;;5089708;28;20199;-79
2021/03/14 03:16:13;;;;;;;1.80;1.70;;;5.20;99.90;;;;;;5089454;28;20565;-80
2021/03/14 03:18:40;;;;;;;1.97;1.80;;;5.20;99.90;;;;;;5090293;28;20210;-84
2021/03/14 03:21:08;;;;;;;1.97;1.67;;;5.10;99.90;;;;;;5090901;28;20207;-84
2021/03/14 03:23:35;;;;;;;4.00;1.70;;;5.10;99.90;;;;;;5090550;28;20210;-82
2021/03/14 03:26:01;;;;;;;1.80;1.40;;;5.00;99.90;;;;;;5090229;28;20199;-83
2021/03/14 03:28:27;;;;;;;2.30;1.50;;;5.00;99.90;;;;;;5089916;28;20206;-83
2021/03/14 03:30:53;;;;;;;0.90;0.90;;;4.90;99.90;;;;;;5089695;28;20684;-83
2021/03/14 03:33:20;;;;;;;1.27;1.17;;;4.80;99.90;;;;;;5089718;28;20233;-82
2021/03/14 03:35:47;;;;;;;0.90;0.90;;;4.80;99.90;;;;;;5089652;28;20755;-83
2021/03/14 03:38:13;;;;;;;1.03;1.03;;;4.80;99.90;;;;;;5089719;28;20226;-82
2021/03/14 03:40:39;;;;;;;1.40;1.30;;;4.70;99.90;;;;;;5089824;28;20234;-82
2021/03/14 03:43:17;;;;;;;2.60;1.30;;;4.70;99.90;;;;;;5089488;28;20206;-82
2021/03/14 03:45:47;;;;;;;1.20;1.10;;;4.70;99.90;;;;;;5089698;28;20588;-80
2021/03/14 03:48:18;;;;;;;1.37;1.27;;;4.60;99.90;;;;;;5089640;28;20596;-83
2021/03/14 03:50:48;;;;;;;1.20;1.20;;;4.60;99.90;;;;;;5089098;28;20650;-82
2021/03/14 03:53:17;;;;;;;2.00;1.20;;;4.60;99.90;;;;;;5089149;28;20253;-82
2021/03/14 03:55:44;;;;;;;2.80;1.13;;;4.50;99.90;;;;;;5089031;28;20249;-82
2021/03/14 03:58:11;;;;;;;1.47;1.37;;;4.50;99.90;;;;;;5089086;28;20276;-85
2021/03/14 04:00:38;;;;;;;1.27;1.27;;;4.50;99.90;;;;;;5089807;28;20231;-85
2021/03/14 04:03:05;;;;;;;1.60;1.50;;;4.50;99.90;;;;;;5089652;28;20238;-84
2021/03/14 04:05:31;;;;;;;1.53;1.43;;;4.40;99.90;;;;;;5089951;28;20605;-85
2021/03/14 04:07:59;;;;;;;1.63;1.53;;;4.40;99.90;;;;;;5089531;28;20293;-85
2021/03/14 04:10:27;;;;;;;1.83;1.30;;;4.40;99.90;;;;;;5090785;28;20207;-85
2021/03/14 04:12:55;;;;;;;1.20;1.20;;;4.40;99.90;;;;;;5090314;28;20266;-85
2021/03/14 04:15:24;;;;;;;1.27;1.27;;;4.40;99.90;;;;;;5090331;28;20672;-85
2021/03/14 04:17:51;;;;;;;1.43;1.10;;;4.30;99.90;;;;;;5090440;28;20291;-85
2021/03/14 04:20:20;;;;;;;1.47;1.10;;;4.30;99.90;;;;;;5090115;28;20207;-85
2021/03/14 04:22:49;;;;;;;1.63;0.80;;;4.30;99.90;;;;;;5090126;28;20206;-83
2021/03/14 04:25:17;;;;;;;0.70;0.70;;;4.20;99.90;;;;;;5090014;28;21058;-84
2021/03/14 04:27:45;;;;;;;0.90;0.90;;;4.20;99.90;;;;;;5089598;28;20215;-86
2021/03/14 04:30:13;;;;;;;1.13;1.00;;;4.20;99.90;;;;;;5088554;28;20281;-83
2021/03/14 04:32:40;;;;;;;1.77;1.13;;;4.20;99.90;;;;;;5088454;28;20258;-82
2021/03/14 04:35:08;;;;;;;2.60;0.97;;;4.10;99.90;;;;;;5088840;28;20228;-83
2021/03/14 04:37:35;;;;;;;1.10;0.90;;;4.10;99.90;;;;;;5089471;28;20266;-80
2021/03/14 04:40:02;;;;;;;1.03;0.83;;;4.10;99.90;;;;;;5088684;28;20199;-81
2021/03/14 04:42:30;;;;;;;1.03;0.93;;;4.10;99.90;;;;;;5088242;28;20679;-81
2021/03/14 04:44:57;;;;;;;0.80;0.80;;;4.10;99.90;;;;;;5088618;28;20263;-81
2021/03/14 04:47:23;;;;;;;2.13;0.90;;;4.10;99.90;;;;;;5088646;28;20283;-79
2021/03/14 04:49:49;;;;;;;0.80;0.80;;;4.10;99.90;;;;;;5088699;28;20202;-82
2021/03/14 04:52:18;;;;;;;1.27;1.00;;;4.10;99.90;;;;;;5089193;28;20275;-83
2021/03/14 04:54:47;;;;;;;1.47;0.93;;;4.10;99.90;;;;;;5089003;28;20206;-82
2021/03/14 04:57:13;;;;;;;0.90;0.87;;;4.10;99.90;;;;;;5088792;28;20273;-81
2021/03/14 04:59:43;;;;;;;0.93;0.93;;;4.00;99.90;;;;;;5088427;28;20375;-81
2021/03/14 05:02:11;;;;;;;0.80;0.70;;;4.00;99.90;;;;;;5090660;28;21415;-86
2021/03/14 05:04:40;;;;;;;0.80;0.80;;;4.00;99.90;;;;;;5092407;28;20233;-81
2021/03/14 05:07:08;;;;;;;1.43;1.23;;;4.00;99.90;;;;;;5092283;28;20203;-79
2021/03/14 05:09:34;;;;;;;1.03;0.83;;;4.00;99.90;;;;;;5091849;28;20692;-79
2021/03/14 05:12:01;;;;;;;10.33;1.80;;;3.90;99.90;;;;;;5091831;28;20246;-80
2021/03/14 05:14:27;;;;;;;1.33;1.03;;;4.00;99.90;;;;;;5091913;28;20211;-79
2021/03/14 05:16:55;;;;;;;2.40;0.90;;;3.90;99.90;;;;;;5091659;28;20230;-80
2021/03/14 05:19:22;;;;;;;1.17;1.07;;;3.90;99.90;;;;;;5092443;28;20206;-80
2021/03/14 05:21:48;;;;;;;2.00;1.10;;;3.90;99.90;;;;;;5091711;28;20199;-80
2021/03/14 05:24:14;;;;;;;1.63;1.27;;;3.90;99.90;;;;;;5091763;28;20203;-79
2021/03/14 05:26:43;;;;;;;1.30;1.20;;;3.90;99.90;;;;;;5091597;28;20242;-80
2021/03/14 05:29:11;;;;;;;1.90;1.50;;;3.80;99.90;;;;;;5091392;28;20696;-79
2021/03/14 05:31:39;;;;;;;1.67;1.20;;;3.90;99.90;;;;;;5091499;28;20230;-80
2021/03/14 05:34:08;;;;;;;1.70;1.60;;;3.90;99.90;;;;;;5091438;28;20230;-79
2021/03/14 05:36:35;;;;;;;1.37;1.30;;;3.90;99.90;;;;;;5091290;28;20298;-80
2021/03/14 05:39:04;;;;;;;1.87;1.73;;;3.90;99.90;;;;;;5091376;28;20203;-79
2021/03/14 05:41:31;;;;;;;1.50;1.40;;;3.90;99.90;;;;;;5090971;28;20741;-80
2021/03/14 05:43:59;;;;;;;2.40;1.40;;;3.90;99.90;;;;;;5091482;28;20213;-80
2021/03/14 05:46:25;;;;;;;1.20;1.20;;;3.90;99.90;;;;;;5090804;28;20817;-79
2021/03/14 05:48:52;;;;;;;1.60;1.50;;;3.90;99.90;;;;;;5091151;28;20199;-79
2021/03/14 05:51:22;;;;;;;1.50;1.33;;;3.90;99.90;;;;;;5091305;28;20208;-79
2021/03/14 05:53:51;;;;;;;1.27;1.27;;;3.90;99.90;;;;;;5091233;28;20195;-79
2021/03/14 05:56:18;;;;;;;1.00;1.00;;;3.90;99.90;;;;;;5090582;28;20211;-78
2021/03/14 05:58:45;;;;;;;1.20;1.20;;;3.90;99.90;;;;;;5090932;28;20294;-79
2021/03/14 06:01:15;;;;;;;1.07;1.07;;;3.90;99.90;;;;;;5090707;28;20734;-79
2021/03/14 06:03:42;;;;;;;1.43;1.00;;;3.90;99.90;;;;;;5090366;28;20231;-80
2021/03/14 06:06:09;;;;;;;0.90;0.90;;;3.90;99.90;;;;;;5090373;28;20742;-80
2021/03/14 06:08:36;;;;;;;0.83;0.83;;;3.90;99.90;;;;;;5090916;28;20660;-81
2021/03/14 06:11:03;;;;;;;0.90;0.90;;;3.90;99.90;;;;;;5090651;28;20203;-79
2021/03/14 06:13:30;;;;;;;1.07;1.07;;;3.90;99.90;;;;;;5090842;28;20204;-80
2021/03/14 06:15:56;;;;;;;1.17;1.00;;;3.90;99.90;;;;;;5090624;28;20203;-80
2021/03/14 06:18:23;;;;;;;2.00;1.03;;;3.90;99.90;;;;;;5090488;28;20242;-79
2021/03/14 06:20:49;;;;;;;0.90;0.90;;;3.90;99.90;;;;;;5090426;28;20268;-80
2021/03/14 06:23:17;;;;;;;0.90;0.90;;;3.90;99.90;;;;;;5090010;28;20242;-81
2021/03/14 06:25:46;;;;;;;1.50;1.40;;;4.00;99.90;;;;;;5090703;28;20207;-77
2021/03/14 06:28:13;;;;;;;2.00;1.40;;;4.00;99.90;;;;;;5090279;28;20214;-79
2021/03/14 06:30:40;;;;;;;1.33;1.20;;;4.00;99.90;;;;;;5090350;28;20265;-79
2021/03/14 06:33:09;;;;;;;1.93;1.00;;;4.10;99.90;;;;;;5089848;28;20256;-79
2021/03/14 06:35:43;;;;;;;1.13;1.10;;;4.10;99.90;;;;;;5090058;28;20206;-79
2021/03/14 06:38:25;;;;;;;1.83;1.30;;;4.10;99.90;;;;;;5090254;28;20225;-82
2021/03/14 06:41:10;;;;;;;1.20;1.10;;;4.20;99.90;;;;;;5090703;28;20203;-83
2021/03/14 06:43:39;;;;;;;1.73;1.13;;;4.20;99.90;;;;;;5090456;28;20194;-81
2021/03/14 06:46:21;;;;;;;1.00;1.00;;;4.20;99.90;;;;;;5089927;28;20733;-81
2021/03/14 06:48:48;;;;;;;3.53;1.20;;;4.20;99.90;;;;;;5090362;28;20295;-82
2021/03/14 06:51:32;;;;;;;1.07;1.07;;;4.20;99.90;;;;;;5090105;28;20198;-81
2021/03/14 06:54:26;;;;;;;2.07;1.20;;;4.20;99.90;;;;;;5090067;28;20283;-81
2021/03/14 06:57:09;;;;;;;1.70;1.00;;;4.30;99.90;;;;;;5089959;28;20215;-80
2021/03/14 06:59:37;;;;;;;1.00;0.90;;;4.20;99.90;;;;;;5091772;28;20602;-81
2021/03/14 07:02:06;;;;;;;1.20;1.20;;;4.20;99.90;;;;;;5098264;28;20206;-80
2021/03/14 07:04:36;;;;;;;1.00;1.00;;;4.20;99.90;;;;;;5097378;28;20187;-82
2021/03/14 07:07:04;;;;;;;0.93;0.90;;;4.20;99.90;;;;;;5100566;28;20613;-81
2021/03/14 07:09:31;;;;;;;1.20;1.20;;;4.20;99.90;;;;;;5099265;28;20566;-82
2021/03/14 07:11:57;;;;;;;1.93;1.30;;;4.20;99.90;;;;;;5098839;27;20210;-81
2021/03/14 07:14:26;;;;;;;1.17;1.10;;;4.20;99.90;;;;;;5105067;27;20205;-84
2021/03/14 07:16:54;;;;;;;1.03;1.03;;;4.20;99.90;;;;;;5100105;28;20194;-83
2021/03/14 07:19:22;;;;;;;1.30;1.20;;;4.10;99.90;;;;;;5099401;28;20674;-84
2021/03/14 07:21:59;;;;;;;1.03;1.00;;;4.10;99.90;;;;;;5098955;28;20244;-80
2021/03/14 07:24:30;;;;;;;0.80;0.80;;;4.10;99.90;;;;;;5097379;28;20198;-80
2021/03/14 07:26:56;;;;;;;1.00;1.00;;;4.20;99.90;;;;;;5099628;28;20225;-84
2021/03/14 07:29:25;;;;;;;1.13;0.90;;;4.20;99.90;;;;;;5091727;28;20202;-79
2021/03/14 07:31:52;;;;;;;1.17;0.97;;;4.20;99.90;;;;;;5102656;28;20664;-75
2021/03/14 07:34:19;;;;;;;0.90;0.90;;;4.20;99.90;;;;;;5095194;28;20219;-78
2021/03/14 07:36:46;;;;;;;1.00;0.97;;;4.30;99.90;;;;;;5106583;28;20305;-78
2021/03/14 07:39:12;;;;;;;1.23;0.90;;;4.30;99.90;;;;;;5104287;28;20205;-79
2021/03/14 07:41:38;;;;;;;1.03;0.83;;;4.30;99.90;;;;;;5105446;28;20267;-80
2021/03/14 07:44:06;;;;;;;1.43;0.80;;;4.30;99.90;;;;;;5104789;28;21246;-78
2021/03/14 07:46:34;;;;;;;0.77;0.77;;;4.30;99.90;;;;;;5099578;28;20221;-78
2021/03/14 07:49:01;;;;;;;0.90;0.90;;;4.30;99.90;;;;;;5105004;28;20290;-80
2021/03/14 07:51:29;;;;;;;1.30;1.17;;;4.30;99.90;;;;;;5091651;28;20687;-77
2021/03/14 07:54:01;;;;;;;1.67;1.43;;;4.30;99.90;;;;;;5084391;28;20662;-77
2021/03/14 07:56:32;;;;;;;1.33;1.20;;;4.50;99.90;;;;;;5100194;28;20194;-79
2021/03/14 07:58:58;;;;;;;1.27;1.20;;;4.60;99.90;;;;;;5104386;28;20226;-79
2021/03/14 08:01:26;;;;;;;1.80;0.90;;;4.50;99.90;;;;;;5104788;28;20210;-80
2021/03/14 08:03:55;;;;;;;1.00;1.00;;;4.50;99.90;;;;;;5104924;28;20238;-79
2021/03/14 08:06:48;;;;;;;0.90;0.90;;;4.50;99.90;;;;;;5105120;28;20206;-79
2021/03/14 08:09:40;;;;;;;1.60;1.20;;;4.50;99.90;;;;;;5096615;28;20253;-80
2021/03/14 08:12:18;;;;;;;1.00;1.00;;;4.50;99.90;;;;;;5104789;28;20650;-79
2021/03/14 08:14:46;;;;;;;2.23;1.20;;;4.60;99.90;;;;;;5104568;28;20206;-80
2021/03/14 08:17:17;;;;;;;1.83;0.80;;;4.60;99.90;;;;;;5104884;28;20494;-80
2021/03/14 08:19:45;;;;;;;2.20;1.20;;;4.60;99.90;;;;;;5104953;28;20290;-79
2021/03/14 08:22:41;;;;;;;1.60;1.50;;;4.70;99.90;;;;;;5104675;28;20261;-80
2021/03/14 08:25:19;;;;;;;2.33;1.93;;;4.70;99.90;;;;;;5104718;28;20210;-76
2021/03/14 08:27:46;;;;;;;1.50;1.30;;;4.70;99.90;;;;;;5104840;28;20208;-79
2021/03/14 08:30:42;;;;;;;3.00;1.73;;;4.80;99.90;;;;;;5104707;28;20244;-79
2021/03/14 08:33:21;;;;;;;2.90;2.00;;;4.80;99.90;;;;;;5084483;28;20249;-74
2021/03/14 08:35:50;;;;;;;2.03;1.90;;;4.90;99.90;;;;;;5085166;28;20292;-74
2021/03/14 08:38:42;;;;;;;1.47;1.37;;;5.10;99.90;;;;;;5088252;28;20599;-79
2021/03/14 08:41:29;;;;;;;1.37;1.27;;;5.10;99.90;;;;;;5088344;28;20195;-80
2021/03/14 08:44:01;;;;;;;1.97;1.43;;;5.00;99.90;;;;;;5088354;28;20703;-79
2021/03/14 08:46:57;;;;;;;2.03;1.67;;;5.00;99.90;;;;;;5088284;28;20198;-79
2021/03/14 08:49:24;;;;;;;1.67;1.57;;;5.00;99.90;;;;;;5088307;28;20199;-79
2021/03/14 08:51:52;;;;;;;2.00;1.70;;;5.00;99.90;;;;;;5088487;28;20253;-80
2021/03/14 08:54:25;;;;;;;1.27;1.20;;;5.10;99.90;;;;;;5103668;28;20209;-78
2021/03/14 08:56:54;;;;;;;3.10;2.10;;;5.10;99.90;;;;;;5108773;28;20199;-80
2021/03/14 08:59:20;;;;;;;2.47;1.70;;;5.00;99.90;;;;;;5108468;28;20213;-80
2021/03/14 09:01:52;;;;;;;2.00;1.60;;;5.00;99.90;;;;;;5108082;28;20739;-81
2021/03/14 09:04:20;;;;;;;2.67;2.33;;;4.90;99.90;;;;;;5109483;28;20233;-88
2021/03/14 09:06:46;;;;;;;4.23;2.53;;;4.90;99.90;;;;;;5108502;28;20245;-82
2021/03/14 09:09:17;;;;;;;2.73;1.93;;;4.80;99.90;;;;;;5108043;27;20251;-82
2021/03/14 09:11:46;;;;;;;3.37;1.80;;;4.80;99.90;;;;;;5108311;28;20190;-80
2021/03/14 09:14:19;;;;;;;2.40;2.10;;;4.80;99.90;;;;;;5108026;28;20213;-79
2021/03/14 09:16:46;;;;;;;2.20;2.00;;;4.80;99.90;;;;;;5105079;28;20228;-78
2021/03/14 09:19:20;;;;;;;3.07;2.00;;;4.80;99.90;;;;;;5105586;28;20212;-78
2021/03/14 09:21:48;;;;;;;1.53;1.43;;;4.80;99.90;;;;;;5107112;28;20202;-79
2021/03/14 09:24:39;;;;;;;2.93;1.67;;;4.80;99.90;;;;;;5107779;28;20528;-78
2021/03/14 09:27:08;;;;;;;2.37;1.77;;;4.80;99.90;;;;;;5103752;28;20609;-78
2021/03/14 09:29:40;;;;;;;1.90;1.80;;;4.80;99.90;;;;;;5107330;28;20720;-78
2021/03/14 09:32:18;;;;;;;1.97;1.80;;;4.80;99.90;;;;;;5107071;28;20313;-78
2021/03/14 09:34:45;;;;;;;2.20;1.80;;;4.80;99.90;;;;;;5090020;28;20256;-78
2021/03/14 09:37:11;;;;;;;2.57;1.90;;;4.80;99.90;;;;;;5085939;28;20278;-77
2021/03/14 09:39:38;;;;;;;5.57;2.27;;;4.80;99.90;;;;;;5087003;28;20203;-79
2021/03/14 09:42:05;;;;;;;3.73;1.93;;;4.90;99.90;;;;;;5086524;28;20210;-80
2021/03/14 09:44:31;;;;;;;1.90;1.80;;;4.90;99.90;;;;;;5087163;28;20214;-79
2021/03/14 09:46:59;;;;;;;2.23;2.00;;;4.90;99.90;;;;;;5100828;28;20253;-79
2021/03/14 09:49:26;;;;;;;2.90;1.70;;;4.90;99.90;;;;;;5106822;28;20214;-79
2021/03/14 09:51:54;;;;;;;1.97;1.87;;;5.00;99.90;;;;;;5107659;27;20952;-79
2021/03/14 09:54:20;;;;;;;2.00;1.90;;;5.00;99.90;;;;;;5107124;28;20630;-79
2021/03/14 09:56:57;;;;;;;3.90;1.90;;;5.10;99.90;;;;;;5106546;28;20198;-80
2021/03/14 09:59:25;;;;;;;2.83;1.90;;;5.10;99.90;;;;;;5106975;28;20194;-78
2021/03/14 10:01:52;;;;;;;4.70;2.10;;;5.10;99.90;;;;;;5106433;28;20214;-76
2021/03/14 10:04:20;;;;;;;1.97;1.87;;;5.20;99.90;;;;;;5106558;28;20217;-78
2021/03/14 10:06:47;;;;;;;2.80;2.20;;;5.20;99.90;;;;;;5106491;28;20213;-78
2021/03/14 10:09:23;;;;;;;2.03;1.83;;;5.30;99.90;;;;;;5096299;28;20651;-79
2021/03/14 10:11:51;;;;;;;2.77;2.00;;;5.30;99.90;;;;;;5092290;28;20201;-78
2021/03/14 10:14:20;;;;;;;3.20;2.23;;;5.30;99.90;;;;;;5097879;28;20202;-78
2021/03/14 10:16:48;;;;;;;2.03;1.93;;;5.30;99.90;;;;;;5094713;28;20229;-72
2021/03/14 10:19:15;;;;;;;2.90;2.20;;;5.40;99.90;;;;;;5106185;28;20230;-72
2021/03/14 10:21:45;;;;;;;3.73;2.30;;;5.60;99.90;;;;;;5106812;28;20213;-79
2021/03/14 10:24:23;;;;;;;2.93;2.07;;;5.70;99.90;;;;;;5106171;28;20221;-79
2021/03/14 10:26:54;;;;;;;1.97;1.87;;;5.70;99.90;;;;;;5101674;28;20263;-78
2021/03/14 10:29:23;;;;;;;1.90;1.80;;;5.70;99.90;;;;;;5096039;28;20424;-80
2021/03/14 10:31:49;;;;;;;3.37;1.70;;;5.80;99.90;;;;;;5097358;28;20705;-80
2021/03/14 10:34:20;;;;;;;3.67;2.00;;;5.90;99.90;;;;;;5095168;28;20212;-78
2021/03/14 10:36:47;;;;;;;3.13;2.00;;;5.90;99.90;;;;;;5097263;27;20626;-79
2021/03/14 10:39:13;;;;;;;4.47;1.93;;;5.90;99.90;;;;;;5099686;28;20237;-82
2021/03/14 10:41:41;;;;;;;3.47;2.10;;;5.90;99.90;;;;;;5093269;28;20277;-79
2021/03/14 10:44:07;;;;;;;4.40;2.17;;;6.00;99.90;;;;;;5097006;28;20643;-77
2021/03/14 10:46:36;;;;;;;3.17;2.10;;;6.00;99.90;;;;;;5092877;28;20572;-79
2021/03/14 10:49:04;;;;;;;2.77;2.17;;;6.00;99.90;;;;;;5096405;28;20217;-78
2021/03/14 10:51:34;;;;;;;2.90;2.10;;;6.10;99.90;;;;;;5100522;28;20202;-78
2021/03/14 10:54:07;;;;;;;3.27;2.27;;;6.10;99.90;;;;;;5092648;28;20611;-77
2021/03/14 10:56:38;;;;;;;4.53;2.50;;;6.10;99.90;;;;;;5092342;28;20194;-82
2021/03/14 10:59:06;;;;;;;4.63;2.40;;;6.20;99.90;;;;;;5084247;28;20222;-76
2021/03/14 11:01:37;;;;;;;6.00;2.20;;;6.30;99.90;;;;;;5084783;28;20198;-76
2021/03/14 11:04:05;;;;;;;3.63;2.13;;;6.60;99.90;;;;;;5084413;28;20269;-80
2021/03/14 11:06:32;;;;;;;3.83;2.10;;;6.50;99.90;;;;;;5085199;28;20615;-86
2021/03/14 11:09:02;;;;;;;3.57;2.30;;;6.60;99.90;;;;;;5086815;28;20273;-82
2021/03/14 11:11:42;;;;;;;4.37;2.37;;;6.70;99.90;;;;;;5089271;28;20600;-81
2021/03/14 11:14:30;;;;;;;2.57;2.00;;;6.80;99.90;;;;;;5089080;28;20205;-81
2021/03/14 11:17:13;;;;;;;2.73;2.10;;;6.90;99.90;;;;;;5089419;28;20294;-81
2021/03/14 11:19:41;;;;;;;3.53;2.27;;;7.00;99.90;;;;;;5088483;28;20195;-80
2021/03/14 11:22:08;;;;;;;2.20;2.00;;;7.00;99.90;;;;;;5089050;28;20271;-81
2021/03/14 11:24:35;;;;;;;5.00;2.07;;;6.90;99.90;;;;;;5089243;28;20203;-81
2021/03/14 11:27:01;;;;;;;4.57;2.20;;;6.90;99.90;;;;;;5089085;28;20251;-81
2021/03/14 11:29:28;;;;;;;4.53;2.00;;;6.80;99.90;;;;;;5089278;28;20545;-81
2021/03/14 11:31:54;;;;;;;3.87;2.37;;;6.80;99.90;;;;;;5088713;28;20616;-81
2021/03/14 11:34:20;;;;;;;3.63;1.83;;;6.80;99.90;;;;;;5089124;28;20210;-80
2021/03/14 11:36:47;;;;;;;5.33;2.00;;;6.80;99.90;;;;;;5088977;28;20210;-81
2021/03/14 11:39:14;;;;;;;4.43;2.03;;;6.80;99.90;;;;;;5088854;28;20681;-80
2021/03/14 11:41:40;;;;;;;2.73;2.27;;;6.80;99.90;;;;;;5088714;28;20669;-80
2021/03/14 11:44:07;;;;;;;4.87;2.17;;;6.80;99.90;;;;;;5088999;28;20236;-81
2021/03/14 11:46:33;;;;;;;3.70;2.00;;;6.80;99.90;;;;;;5089086;28;20219;-81
2021/03/14 11:49:00;;;;;;;3.23;2.30;;;6.90;99.90;;;;;;5089156;28;20220;-80
2021/03/14 11:51:26;;;;;;;2.90;2.00;;;7.00;99.90;;;;;;5089057;28;20198;-80
2021/03/14 11:53:54;;;;;;;2.83;1.60;;;7.10;99.90;;;;;;5088915;28;20203;-81
2021/03/14 11:56:22;;;;;;;4.33;2.80;;;7.10;99.90;;;;;;5088411;28;20669;-81
2021/03/14 11:58:48;;;;;;;2.77;2.03;;;7.20;99.90;;;;;;5088896;28;20280;-79
2021/03/14 12:01:14;;;;;;;3.57;2.10;;;7.20;99.90;;;;;;5088450;28;20199;-80
2021/03/14 12:03:44;;;;;;;3.33;1.90;;;7.20;99.90;;;;;;5088139;28;20283;-81
2021/03/14 12:06:11;;;;;;;2.53;1.87;;;7.20;99.90;;;;;;5088434;28;20633;-81
2021/03/14 12:08:37;;;;;;;6.00;2.10;;;7.20;99.90;;;;;;5088863;28;20210;-81
2021/03/14 12:11:06;;;;;;;2.30;1.80;;;7.20;99.90;;;;;;5093092;28;20259;-81
2021/03/14 12:13:32;;;;;;;2.00;1.80;;;7.20;99.90;;;;;;5095640;28;20230;-80
2021/03/14 12:15:59;;;;;;;3.17;1.53;;;7.10;99.90;;;;;;5095339;28;20206;-80
2021/03/14 12:18:25;;;;;;;1.83;1.30;;;7.00;99.90;;;;;;5094793;28;20616;-80
2021/03/14 12:20:51;;;;;;;2.13;1.40;;;6.90;99.90;;;;;;5095041;28;20820;-81
2021/03/14 12:23:18;;;;;;;5.30;1.40;;;6.80;99.90;;;;;;5095253;28;20218;-81
2021/03/14 12:25:44;;;;;;;2.90;1.30;;;6.80;99.90;;;;;;5095535;28;20260;-83
2021/03/14 12:28:11;;;;;;;3.93;1.30;;;6.60;99.90;;;;;;5094903;28;20688;-81
2021/03/14 12:30:37;;;;;;;1.57;1.03;;;6.50;99.90;;;;;;5095313;28;20338;-81
2021/03/14 12:33:03;;;;;;;1.33;1.20;;;6.50;99.90;;;;;;5095044;28;20202;-81
2021/03/14 12:35:30;;;;;;;2.30;1.00;;;6.50;99.90;;;;;;5095260;28;20256;-81
2021/03/14 12:37:56;;;;;;;2.77;1.97;;;6.50;99.90;;;;;;5095181;28;20222;-81
2021/03/14 12:40:22;;;;;;;2.37;1.40;;;6.60;99.90;;;;;;5094632;28;20241;-80
2021/03/14 12:42:49;;;;;;;3.70;1.37;;;6.90;99.90;;;;;;5095256;28;20206;-81
2021/03/14 12:45:17;;;;;;;2.60;1.37;;;7.20;99.90;;;;;;5094824;28;20206;-81
2021/03/14 12:47:43;;;;;;;2.97;1.47;;;7.60;99.90;;;;;;5095247;28;20215;-80
2021/03/14 12:50:10;;;;;;;2.63;1.40;;;8.10;99.90;;;;;;5094977;28;20221;-81
2021/03/14 12:52:36;;;;;;;1.67;1.13;;;8.50;99.90;;;;;;5095031;28;20214;-81
2021/03/14 12:55:03;;;;;;;3.07;1.50;;;8.60;99.90;;;;;;5095092;28;20263;-81
2021/03/14 12:57:29;;;;;;;2.53;1.50;;;8.50;99.90;;;;;;5094609;28;20954;-81
2021/03/14 12:59:55;;;;;;;2.37;1.30;;;8.40;99.90;;;;;;5095029;28;20202;-80
2021/03/14 13:02:22;;;;;;;2.30;1.23;;;8.40;99.90;;;;;;5094602;28;20736;-81
2021/03/14 13:04:49;;;;;;;1.30;1.20;;;8.40;99.90;;;;;;5095112;28;20206;-80
2021/03/14 13:07:15;;;;;;;1.50;1.00;;;8.20;99.90;;;;;;5094597;28;21015;-81